Time;durP1;ratioP1;P1;durP2;ratioP2;P2;SDS_P1;SDS_P2;PMS_P1;PMS_P2;Temp;Humidity;BMP_temperature;BMP_pressure;BME280_temperature;BME280_humidity;BME280_pressure;Samples;Min_cycle;Max_cycle;Signal;HPM_P1;HPM_P2
2022/01/28 00:01:27;;;;;;;15.07;3.17;;;;;;;3.87;82.84;100489.75;4993650;28;20144;-60
2022/01/28 00:04:00;;;;;;;;;;;;;;;4.04;81.71;100488.72;4986440;28;20498;-60
2022/01/28 00:06:26;;;;;;;10.90;2.50;;;;;;;4.00;82.05;100487.38;4997194;28;20036;-59
2022/01/28 00:08:51;;;;;;;7.57;2.33;;;;;;;3.81;83.06;100488.56;4989902;28;20484;-59
2022/01/28 00:11:17;;;;;;;7.55;2.67;;;;;;;3.81;82.74;100487.75;5011616;28;20034;-59
2022/01/28 00:13:44;;;;;;;11.65;2.38;;;;;;;3.88;82.86;100496.69;4988480;28;20113;-60
2022/01/28 00:40:27;;;;;;;10.00;2.70;;;;;;;4.09;82.66;100504.94;4993009;28;20653;-60
2022/01/28 00:42:52;;;;;;;17.02;3.10;;;;;;;4.06;82.39;100521.19;4988688;28;20100;-60
2022/01/28 00:45:18;;;;;;;14.35;2.90;;;;;;;4.17;81.62;100532.44;4991025;28;20323;-60
2022/01/28 00:47:44;;;;;;;11.02;2.90;;;;;;;4.26;80.81;100534.09;4989521;28;20034;-60
2022/01/28 00:50:10;;;;;;;9.05;3.22;;;;;;;4.25;81.18;100543.06;5007972;28;20200;-60
2022/01/28 00:52:35;;;;;;;16.48;2.85;;;;;;;4.28;81.91;100554.16;4994663;28;20421;-60
2022/01/28 00:55:01;;;;;;;9.82;2.97;;;;;;;4.26;81.37;100550.84;4996549;28;20062;-61
2022/01/28 00:57:26;;;;;;;12.20;2.75;;;;;;;4.22;82.04;100559.31;4990450;28;20019;-60
2022/01/28 00:59:52;;;;;;;17.13;3.50;;;;;;;4.19;82.38;100559.66;4997422;28;20038;-60
2022/01/28 01:02:17;;;;;;;10.52;2.72;;;;;;;4.19;82.19;100554.34;5002218;28;20038;-60
2022/01/28 01:04:42;;;;;;;8.65;2.67;;;;;;;4.20;81.91;100561.31;5003510;28;20515;-60
2022/01/28 01:07:08;;;;;;;12.93;3.58;;;;;;;4.16;82.05;100570.59;4992717;28;20042;-60
2022/01/28 01:09:34;;;;;;;19.27;2.28;;;;;;;4.30;80.07;100568.09;4999791;28;20113;-60
2022/01/28 01:11:59;;;;;;;15.48;2.58;;;;;;;4.27;80.64;100562.31;4999975;28;20096;-60
2022/01/28 01:14:25;;;;;;;16.63;2.50;;;;;;;4.16;81.25;100570.59;4998429;28;20053;-60
2022/01/28 01:19:28;;;;;;;16.77;2.50;;;;;;;4.13;81.80;100577.06;4992079;28;20034;-60
2022/01/28 01:21:57;;;;;;;12.55;2.40;;;;;;;4.17;81.80;100588.16;4999232;28;20124;-60
2022/01/28 01:24:25;;;;;;;19.58;2.80;;;;;;;4.13;81.82;100597.47;4993414;28;20041;-60
2022/01/28 01:26:51;;;;;;;10.68;2.45;;;;;;;4.14;81.66;100593.81;4989909;28;20488;-60
2022/01/28 01:29:20;;;;;;;13.52;3.03;;;;;;;4.17;80.56;100593.47;5008728;28;20038;-60
2022/01/28 01:31:46;;;;;;;15.48;2.75;;;;;;;4.23;80.20;100592.81;4993532;28;20088;-60
2022/01/28 01:34:21;;;;;;;13.13;2.35;;;;;;;4.07;81.17;100598.97;4987011;28;20034;-60
2022/01/28 01:36:46;;;;;;;7.97;2.65;;;;;;;4.06;80.49;100592.81;4998609;28;20547;-60
2022/01/28 01:39:15;;;;;;;10.10;2.25;;;;;;;4.16;78.26;100607.75;4996891;28;20088;-60
2022/01/28 01:41:47;;;;;;;6.03;1.98;;;;;;;4.14;79.42;100607.09;4996042;28;20567;-60
2022/01/28 01:44:28;;;;;;;10.13;2.25;;;;;;;4.02;80.43;100610.09;4988349;28;20033;-60
2022/01/28 01:52:00;;;;;;;11.00;2.30;;;;;;;4.07;79.91;100621.03;4989936;28;20782;-60
2022/01/28 01:52:39;;;;;;;12.10;2.45;;;;;;;3.94;80.70;100631.28;4991464;28;20068;-60
2022/01/28 01:55:05;;;;;;;8.13;1.63;;;;;;;3.95;80.31;100632.97;4990713;28;20038;-60
2022/01/28 01:57:31;;;;;;;14.02;3.00;;;;;;;3.84;80.44;100625.31;5001740;28;20026;-60
2022/01/28 01:59:56;;;;;;;6.47;2.38;;;;;;;3.91;80.60;100631.63;5006153;28;20036;-60
2022/01/28 02:02:22;;;;;;;10.93;2.35;;;;;;;3.87;79.92;100632.97;4990158;28;20042;-60
2022/01/28 02:04:47;;;;;;;15.73;2.75;;;;;;;3.83;80.44;100634.28;4993171;28;20046;-60
2022/01/28 02:07:14;;;;;;;17.15;2.95;;;;;;;3.78;80.06;100637.41;4991637;28;20049;-60
2022/01/28 02:09:40;;;;;;;15.25;3.10;;;;;;;3.68;80.99;100629.59;4998775;28;20030;-60
2022/01/28 02:12:06;;;;;;;9.98;2.92;;;;;;;3.84;78.63;100627.97;4985874;28;20062;-60
2022/01/28 02:14:32;;;;;;;18.55;3.25;;;;;;;3.88;78.78;100627.47;4996213;28;20495;-60
2022/01/28 02:16:57;;;;;;;14.02;2.95;;;;;;;3.89;79.67;100644.22;4990437;28;20042;-60
2022/01/28 02:19:23;;;;;;;10.60;2.95;;;;;;;3.76;79.85;100643.88;5001739;28;20026;-60
2022/01/28 02:21:51;;;;;;;13.75;3.00;;;;;;;3.73;79.90;100652.16;5001950;28;20050;-60
2022/01/28 02:24:22;;;;;;;15.38;3.00;;;;;;;3.68;80.67;100647.34;5001426;28;20037;-60
2022/01/28 02:26:47;;;;;;;14.82;3.58;;;;;;;3.59;81.51;100654.44;4996374;28;20733;-60
2022/01/28 02:29:15;;;;;;;14.90;2.97;;;;;;;3.47;81.81;100647.81;4983678;28;20108;-60
2022/01/28 02:31:41;;;;;;;22.80;3.60;;;;;;;3.42;82.66;100647.44;4993167;28;20121;-60
2022/01/28 02:34:10;;;;;;;19.92;3.47;;;;;;;3.42;81.68;100647.44;4994434;28;20579;-60
2022/01/28 02:36:35;;;;;;;18.80;3.60;;;;;;;3.48;81.79;100646.81;4991273;28;20077;-60
2022/01/28 02:39:01;;;;;;;17.30;2.95;;;;;;;3.51;81.82;100651.78;4995286;28;20035;-60
2022/01/28 02:41:32;;;;;;;19.83;3.75;;;;;;;3.42;81.59;100652.72;4950621;28;1180299;-60
2022/01/28 02:46:25;;;;;;;21.83;4.13;;;;;;;3.22;82.31;100663.63;4991330;28;20046;-60
2022/01/28 02:48:55;;;;;;;19.42;3.00;;;;;;;3.19;83.18;100668.38;4996189;28;20023;-60
2022/01/28 02:51:22;;;;;;;16.70;2.50;;;;;;;3.23;82.26;100670.56;4992035;28;20137;-60
2022/01/28 02:53:54;;;;;;;12.93;2.97;;;;;;;3.14;83.00;100666.22;4991429;28;20033;-60
2022/01/28 02:56:40;;;;;;;19.63;3.25;;;;;;;3.12;82.98;100668.22;4994969;28;20048;-60
2022/01/28 02:59:06;;;;;;;19.60;3.10;;;;;;;3.01;83.62;100671.13;4989804;28;20152;-60
2022/01/28 03:01:31;;;;;;;15.73;2.70;;;;;;;3.01;83.77;100668.47;4993616;28;20047;-60
2022/01/28 03:04:00;;;;;;;19.63;3.70;;;;;;;2.92;84.47;100674.72;4995639;28;20045;-60
2022/01/28 03:06:25;;;;;;;10.75;2.75;;;;;;;2.93;83.81;100686.97;4986334;28;20077;-60
2022/01/28 03:08:57;;;;;;;13.43;3.15;;;;;;;2.86;83.59;100693.88;4992930;28;20033;-60
2022/01/28 03:16:41;;;;;;;21.65;3.25;;;;;;;2.82;83.26;100690.72;4997784;28;20546;-60
2022/01/28 03:19:19;;;;;;;14.73;2.28;;;;;;;2.83;82.14;100688.91;4992433;28;20575;-60
2022/01/28 03:21:53;;;;;;;11.70;2.22;;;;;;;2.80;81.94;100693.53;4988576;28;20499;-60
2022/01/28 03:24:19;;;;;;;10.02;1.80;;;;;;;2.71;82.53;100707.69;4984075;28;20459;-60
2022/01/28 03:26:46;;;;;;;18.67;2.78;;;;;;;2.71;83.01;100707.69;4984558;28;20042;-60
2022/01/28 03:29:11;;;;;;;21.08;2.65;;;;;;;2.66;83.81;100709.16;4994308;28;20030;-60
2022/01/28 03:31:38;;;;;;;8.48;1.95;;;;;;;2.67;83.28;100695.78;4989873;28;20089;-60
2022/01/28 03:34:04;;;;;;;11.05;1.95;;;;;;;2.78;82.50;100703.44;4991126;28;20065;-60
2022/01/28 03:36:29;;;;;;;19.67;2.65;;;;;;;2.72;82.84;100705.88;4992333;28;20046;-60
2022/01/28 03:38:54;;;;;;;15.32;2.80;;;;;;;2.76;82.06;100716.00;4980628;28;20034;-60
2022/01/28 03:41:20;;;;;;;18.23;2.22;;;;;;;2.79;82.54;100720.16;4972176;28;20042;-60
2022/01/28 03:43:49;;;;;;;13.27;2.30;;;;;;;2.79;82.03;100720.97;4970240;28;20653;-60
2022/01/28 03:46:14;;;;;;;14.77;2.33;;;;;;;2.70;82.66;100713.97;4979905;28;20043;-60
2022/01/28 03:48:40;;;;;;;9.88;2.38;;;;;;;2.58;83.30;100717.88;4992929;28;20030;-59
2022/01/28 03:51:05;;;;;;;13.55;3.13;;;;;;;2.47;83.77;100720.75;4989605;28;20042;-60
2022/01/28 03:53:31;;;;;;;10.80;1.98;;;;;;;2.68;83.26;100723.91;4992645;28;20068;-59
2022/01/28 03:55:57;;;;;;;16.95;3.13;;;;;;;2.58;83.46;100723.97;4986108;28;20042;-59
2022/01/28 03:58:23;;;;;;;15.55;3.10;;;;;;;2.49;83.53;100724.06;4988717;28;20548;-59
2022/01/28 04:00:50;;;;;;;19.10;2.75;;;;;;;2.43;83.93;100730.00;4987316;28;20038;-59
2022/01/28 04:13:45;;;;;;;15.55;2.75;;;;;;;2.37;86.11;100753.44;4990650;28;20105;-59
2022/01/28 04:18:46;;;;;;;16.65;2.30;;;;;;;2.52;84.85;100771.41;5004694;28;20071;-61
2022/01/28 04:21:11;;;;;;;13.48;2.60;;;;;;;2.47;84.88;100778.97;4995032;28;20042;-61
2022/01/28 04:23:37;;;;;;;14.27;2.30;;;;;;;2.43;85.46;100767.03;4987673;28;20031;-61
2022/01/28 04:26:02;;;;;;;13.15;2.05;;;;;;;2.55;85.73;100779.88;4990262;28;20129;-60
2022/01/28 04:28:28;;;;;;;11.82;2.15;;;;;;;2.61;85.50;100765.19;4997281;28;20444;-61
2022/01/28 04:30:53;;;;;;;18.83;2.45;;;;;;;2.55;85.74;100776.41;4996663;28;20457;-60
2022/01/28 04:33:19;;;;;;;13.27;1.88;;;;;;;2.77;85.42;100773.28;4990063;28;20267;-60
2022/01/28 04:35:47;;;;;;;16.33;2.17;;;;;;;2.81;85.09;100777.28;4987604;28;20514;-61
2022/01/28 04:40:49;;;;;;;14.45;2.15;;;;;;;2.81;85.81;100785.22;4990581;28;20492;-59
2022/01/28 04:43:22;;;;;;;26.33;2.88;;;;;;;2.84;86.38;100788.53;4999567;28;20030;-60
2022/01/28 04:46:00;;;;;;;21.73;3.40;;;;;;;2.79;86.38;100787.19;4990955;28;20034;-59
2022/01/28 04:51:18;;;;;;;14.95;2.65;;;;;;;2.81;87.04;100787.84;4996201;28;20551;-59
2022/01/28 04:54:25;;;;;;;7.65;1.85;;;;;;;2.90;86.29;100790.59;4991266;28;20144;-59
2022/01/28 05:27:09;;;;;;;13.00;2.88;;;;;;;2.81;87.46;100814.34;4993327;28;20210;-59
2022/01/28 05:29:35;;;;;;;18.23;2.70;;;;;;;2.82;88.38;100836.34;4993726;28;20030;-59
2022/01/28 05:32:01;;;;;;;12.80;2.58;;;;;;;2.85;87.72;100832.59;4985893;28;20068;-61
2022/01/28 05:34:27;;;;;;;20.52;3.15;;;;;;;2.78;88.19;100822.59;4988977;28;20031;-58
2022/01/28 05:36:53;;;;;;;19.50;2.67;;;;;;;2.86;87.82;100831.59;5003866;28;20083;-61
2022/01/28 05:39:19;;;;;;;24.83;2.70;;;;;;;2.83;87.92;100818.66;4985972;28;20108;-58
2022/01/28 05:41:44;;;;;;;16.80;2.83;;;;;;;2.86;87.93;100824.47;4989130;28;20612;-61
2022/01/28 05:44:10;;;;;;;18.98;2.58;;;;;;;2.84;88.26;100812.38;4988324;28;20100;-59
2022/01/28 05:46:35;;;;;;;14.20;2.72;;;;;;;2.86;88.38;100828.94;4985927;28;20489;-59
2022/01/28 05:49:02;;;;;;;16.65;2.35;;;;;;;2.78;88.05;100830.53;4992504;28;20030;-59
2022/01/28 05:51:27;;;;;;;14.07;2.67;;;;;;;2.79;87.92;100832.19;4995697;28;20034;-59
2022/01/28 05:53:53;;;;;;;14.07;2.78;;;;;;;2.70;88.71;100843.72;4987997;28;20057;-60
2022/01/28 05:56:19;;;;;;;19.73;2.50;;;;;;;2.67;88.73;100859.91;4994208;28;20069;-60
2022/01/28 05:58:45;;;;;;;8.35;2.33;;;;;;;2.77;88.27;100852.72;4985656;28;20084;-60
2022/01/28 06:01:10;;;;;;;19.08;3.00;;;;;;;2.84;87.70;100855.56;4987487;28;20041;-59
2022/01/28 06:03:36;;;;;;;13.52;2.83;;;;;;;2.79;88.09;100845.44;4990928;28;20038;-59
2022/01/28 06:06:01;;;;;;;12.52;2.75;;;;;;;2.79;87.91;100849.91;4988998;28;20047;-60
2022/01/28 06:08:26;;;;;;;19.08;3.03;;;;;;;2.76;88.38;100858.97;4997960;28;20253;-59
2022/01/28 06:10:52;;;;;;;28.85;3.05;;;;;;;2.92;87.90;100854.81;4995376;28;20418;-59
2022/01/28 06:13:17;;;;;;;15.05;2.40;;;;;;;2.87;87.47;100859.72;4986718;28;20031;-59
2022/01/28 06:15:43;;;;;;;12.82;3.05;;;;;;;2.84;87.30;100858.22;4984221;28;20045;-59
2022/01/28 06:18:09;;;;;;;16.58;3.13;;;;;;;2.84;86.90;100870.63;4995458;28;20113;-59
2022/01/28 06:20:35;;;;;;;19.58;3.28;;;;;;;2.83;86.66;100869.00;4995041;28;20129;-60
2022/01/28 06:23:00;;;;;;;14.32;2.75;;;;;;;2.92;85.70;100857.47;4994287;28;20030;-59
2022/01/28 06:25:26;;;;;;;10.93;2.45;;;;;;;2.92;86.82;100863.63;4990034;28;20056;-59
2022/01/28 06:27:51;;;;;;;16.67;2.63;;;;;;;2.88;86.67;100867.53;4994644;28;20042;-60
2022/01/28 06:30:17;;;;;;;13.30;3.17;;;;;;;2.88;86.09;100882.59;4990356;28;20041;-59
2022/01/28 06:32:42;;;;;;;23.23;2.60;;;;;;;2.81;85.71;100877.91;4994551;28;20026;-60
2022/01/28 06:35:08;;;;;;;21.20;3.45;;;;;;;2.74;86.07;100876.00;4993529;28;20041;-59
2022/01/28 06:37:35;;;;;;;17.02;2.70;;;;;;;2.70;86.15;100879.97;4992377;28;20036;-60
2022/01/28 06:40:01;;;;;;;16.00;3.70;;;;;;;2.74;86.00;100879.47;4997246;28;20064;-60
2022/01/28 06:42:26;;;;;;;19.63;3.58;;;;;;;2.69;86.33;100878.28;4991065;28;20456;-60
2022/01/28 06:44:52;;;;;;;19.65;3.50;;;;;;;2.85;85.93;100899.63;4991623;28;20160;-59
2022/01/28 06:47:17;;;;;;;21.13;2.92;;;;;;;2.83;85.89;100906.06;4988684;28;20042;-59
2022/01/28 06:49:43;;;;;;;15.30;3.20;;;;;;;2.81;85.79;100903.56;4981629;28;20038;-59
2022/01/28 06:52:08;;;;;;;14.35;3.42;;;;;;;2.88;85.74;100903.78;4991573;28;20731;-59
2022/01/28 06:54:33;;;;;;;15.88;3.33;;;;;;;2.96;86.16;100909.97;4984829;28;20038;-60
2022/01/28 06:56:59;;;;;;;19.88;3.55;;;;;;;3.02;86.11;100911.19;4991106;28;20485;-61
2022/01/28 06:59:24;;;;;;;26.05;3.72;;;;;;;3.02;85.80;100916.47;4988661;28;20428;-61
2022/01/28 07:01:50;;;;;;;30.30;3.50;;;;;;;3.06;85.60;100914.38;5006685;28;20038;-60
2022/01/28 07:04:16;;;;;;;11.48;2.90;;;;;;;3.14;86.76;100920.56;4988290;28;20050;-60
2022/01/28 07:06:41;;;;;;;11.70;3.05;;;;;;;3.16;87.00;100928.38;5003350;28;20046;-60
2022/01/28 07:09:08;;;;;;;11.65;3.00;;;;;;;3.24;85.96;100931.94;4989347;28;20045;-59
2022/01/28 07:11:33;;;;;;;16.48;3.17;;;;;;;3.26;86.01;100945.00;4987392;28;20041;-59
2022/01/28 07:13:59;;;;;;;13.52;3.38;;;;;;;3.21;85.72;100942.81;4985487;28;20416;-60
2022/01/28 07:16:24;;;;;;;16.35;3.33;;;;;;;3.16;86.39;100949.56;4985008;28;20080;-60
2022/01/28 07:18:50;;;;;;;17.45;3.03;;;;;;;3.14;86.21;100955.00;4990350;28;20041;-60
2022/01/28 07:21:15;;;;;;;13.15;3.17;;;;;;;3.16;86.29;100962.81;4987011;28;20046;-60
2022/01/28 07:23:40;;;;;;;19.92;3.25;;;;;;;3.26;87.22;100970.69;4989953;28;20038;-59
2022/01/28 07:26:06;;;;;;;21.27;4.38;;;;;;;3.23;86.01;100972.66;4992385;28;20035;-59
2022/01/28 07:28:34;;;;;;;16.15;2.88;;;;;;;3.23;85.97;100967.34;4991151;28;20030;-60
2022/01/28 07:30:59;;;;;;;15.73;3.58;;;;;;;3.19;86.16;100981.06;4986861;28;20050;-59
2022/01/28 07:33:25;;;;;;;17.02;3.90;;;;;;;3.21;85.97;100982.56;4994638;28;20049;-60
2022/01/28 07:35:50;;;;;;;15.85;3.10;;;;;;;3.27;86.03;100981.16;4987547;28;20046;-60
2022/01/28 07:38:15;;;;;;;16.30;3.17;;;;;;;3.31;85.75;100990.44;4991645;28;20030;-59
2022/01/28 07:40:41;;;;;;;21.05;3.63;;;;;;;3.34;85.48;100989.31;4989919;28;20120;-59
2022/01/28 07:43:06;;;;;;;19.85;3.30;;;;;;;3.39;86.00;100997.63;4989470;28;20030;-60
2022/01/28 07:45:32;;;;;;;24.48;3.60;;;;;;;3.43;85.04;100993.69;4988894;28;20058;-59
2022/01/28 07:47:58;;;;;;;11.13;3.30;;;;;;;3.47;84.81;101000.38;4989031;28;20038;-59
2022/01/28 07:50:23;;;;;;;17.25;3.30;;;;;;;3.43;85.16;100999.00;4997190;28;20136;-59
2022/01/28 07:52:48;;;;;;;16.45;2.85;;;;;;;3.56;85.07;101003.91;4993537;28;20088;-59
2022/01/28 07:55:17;;;;;;;11.60;3.00;;;;;;;3.48;84.87;101007.34;4992388;28;20369;-60
2022/01/28 07:57:42;;;;;;;16.77;3.65;;;;;;;3.48;85.28;101004.69;4984246;28;20038;-59
2022/01/28 08:00:09;;;;;;;13.43;3.65;;;;;;;3.50;85.11;101015.16;4984897;28;20112;-59
2022/01/28 08:02:35;;;;;;;24.48;5.72;;;;;;;3.66;84.52;101010.78;4977258;28;20042;-60
2022/01/28 08:05:00;;;;;;;36.10;9.45;;;;;;;3.71;85.34;101017.47;4977722;28;20145;-60
2022/01/28 08:07:26;;;;;;;41.47;16.40;;;;;;;3.77;85.15;101023.00;4980131;28;20061;-60
2022/01/28 08:09:51;;;;;;;28.60;6.93;;;;;;;3.79;86.77;101025.47;4979311;28;20797;-60
2022/01/28 08:12:17;;;;;;;46.35;16.95;;;;;;;3.64;84.39;101023.38;4989604;28;20404;-60
2022/01/28 08:14:42;;;;;;;78.03;29.40;;;;;;;3.71;83.80;101023.59;4985791;28;20745;-60
2022/01/28 08:17:08;;;;;;;86.82;34.88;;;;;;;3.73;83.75;101020.78;4977523;28;20552;-60
2022/01/28 08:19:33;;;;;;;34.95;14.05;;;;;;;3.70;83.76;101021.94;4978696;28;20043;-59
2022/01/28 08:21:59;;;;;;;46.33;16.90;;;;;;;3.82;83.37;101035.75;4993887;28;20038;-59
2022/01/28 08:24:24;;;;;;;25.02;7.10;;;;;;;3.86;83.88;101034.47;4984981;28;20541;-59
2022/01/28 08:26:50;;;;;;;21.55;3.92;;;;;;;3.91;83.28;101029.53;4978752;28;20049;-59
2022/01/28 08:29:16;;;;;;;19.35;4.20;;;;;;;4.04;83.55;101029.97;4983588;28;20041;-60
2022/01/28 08:31:41;;;;;;;20.33;3.55;;;;;;;4.27;81.46;101034.78;4985056;28;20419;-60
2022/01/28 08:34:07;;;;;;;31.80;6.30;;;;;;;4.58;80.23;101048.34;4983208;28;20042;-60
2022/01/28 08:36:34;;;;;;;23.55;4.07;;;;;;;4.76;79.48;101050.91;4986062;28;20042;-60
2022/01/28 08:39:00;;;;;;;19.50;5.85;;;;;;;4.73;79.27;101046.75;4987047;28;20417;-60
2022/01/28 08:41:25;;;;;;;16.08;3.60;;;;;;;5.35;78.39;101048.28;4984806;28;20998;-61
2022/01/28 08:43:54;;;;;;;25.15;3.70;;;;;;;5.77;75.23;101049.97;4989289;28;20034;-60
2022/01/28 08:46:19;;;;;;;22.98;3.78;;;;;;;6.25;72.87;101054.44;5001457;28;20762;-60
2022/01/28 08:48:45;;;;;;;15.80;3.63;;;;;;;7.13;70.82;101053.44;4993384;28;20042;-60
2022/01/28 08:51:10;;;;;;;10.35;3.30;;;;;;;7.10;69.60;101053.78;4985710;28;20042;-59
2022/01/28 08:53:38;;;;;;;14.88;3.20;;;;;;;6.77;69.88;101060.28;4988155;28;20676;-60
2022/01/28 08:56:04;;;;;;;17.08;3.42;;;;;;;5.62;75.00;101063.09;4989034;28;20080;-61
2022/01/28 08:58:29;;;;;;;17.15;4.68;;;;;;;5.73;74.83;101062.75;4993277;28;20422;-62
2022/01/28 09:00:54;;;;;;;22.25;3.78;;;;;;;5.45;75.40;101058.75;4991349;28;20061;-60
2022/01/28 09:03:20;;;;;;;14.50;3.58;;;;;;;5.90;75.07;101066.25;4996610;28;20753;-60
2022/01/28 09:05:46;;;;;;;31.00;14.90;;;;;;;5.84;75.41;101078.41;4994955;28;20061;-59
2022/01/28 09:08:11;;;;;;;12.32;3.05;;;;;;;5.86;74.22;101069.41;4983582;28;20030;-59
2022/01/28 09:10:41;;;;;;;28.00;4.00;;;;;;;5.57;77.59;101081.41;4993992;28;20038;-59
2022/01/28 09:15:32;;;;;;;16.10;5.22;;;;;;;4.92;77.44;101087.38;4988684;28;20277;-61
2022/01/28 09:17:58;;;;;;;18.33;4.25;;;;;;;4.82;78.23;101092.81;4993086;28;20710;-61
2022/01/28 09:20:23;;;;;;;26.08;5.25;;;;;;;4.76;78.91;101091.59;4999923;28;20042;-59
2022/01/28 09:22:49;;;;;;;20.85;4.60;;;;;;;4.79;78.53;101095.75;4987135;28;20408;-59
2022/01/28 09:25:15;;;;;;;28.40;6.82;;;;;;;4.64;79.37;101089.38;4993193;28;20056;-59
2022/01/28 09:27:40;;;;;;;20.80;4.20;;;;;;;4.58;79.26;101090.03;4992695;28;20436;-57
2022/01/28 09:30:06;;;;;;;18.88;4.38;;;;;;;4.74;78.87;101095.41;4994224;28;20072;-59
2022/01/28 09:32:32;;;;;;;22.15;6.32;;;;;;;4.91;78.66;101088.34;4985863;28;20404;-60
2022/01/28 09:34:57;;;;;;;21.20;4.43;;;;;;;5.16;79.35;101089.25;5000091;28;20033;-59
2022/01/28 09:37:23;;;;;;;21.65;4.57;;;;;;;5.24;76.59;101096.44;4993854;28;20042;-60
2022/01/28 09:39:49;;;;;;;22.23;3.45;;;;;;;5.11;76.78;101102.22;4984822;28;20026;-59
2022/01/28 09:42:16;;;;;;;14.18;3.88;;;;;;;5.11;77.31;101097.72;4998263;28;20054;-60
2022/01/28 09:44:43;;;;;;;22.73;6.25;;;;;;;5.17;78.49;101091.78;4990953;28;20080;-60
2022/01/28 09:47:11;;;;;;;15.85;4.38;;;;;;;5.00;76.81;101094.53;4996101;28;20093;-59
2022/01/28 09:49:39;;;;;;;29.50;5.75;;;;;;;5.01;75.43;101102.34;4998062;28;20069;-59
2022/01/28 09:52:09;;;;;;;20.17;4.95;;;;;;;5.15;74.67;101108.88;4994943;28;20046;-59
2022/01/28 09:54:35;;;;;;;32.60;10.02;;;;;;;5.49;72.19;101107.94;4992566;28;20073;-59
2022/01/28 09:57:01;;;;;;;25.42;5.97;;;;;;;5.45;72.94;101114.63;5000921;28;20042;-59
2022/01/28 09:59:27;;;;;;;25.00;4.40;;;;;;;5.61;70.63;101101.34;4986405;28;20105;-59
2022/01/28 10:01:53;;;;;;;22.02;5.72;;;;;;;5.93;70.88;101102.34;4983236;28;20069;-59
2022/01/28 10:04:20;;;;;;;17.45;3.05;;;;;;;6.80;68.71;101106.06;4990233;28;20336;-59
2022/01/28 10:06:46;;;;;;;22.17;3.35;;;;;;;6.65;67.72;101113.94;4994542;28;20566;-59
2022/01/28 10:09:13;;;;;;;19.60;4.38;;;;;;;7.42;65.13;101107.97;4991774;28;20029;-59
2022/01/28 10:11:40;;;;;;;18.13;5.97;;;;;;;6.94;66.34;101111.69;4993140;28;20405;-59
2022/01/28 10:14:27;;;;;;;16.50;4.82;;;;;;;7.68;62.33;101114.81;4991234;28;20104;-59
2022/01/28 10:17:01;;;;;;;25.42;4.35;;;;;;;8.07;60.96;101119.19;4992665;28;20053;-59
2022/01/28 10:19:27;;;;;;;26.38;6.30;;;;;;;8.30;58.56;101129.84;4987187;28;20153;-60
2022/01/28 10:21:53;;;;;;;24.95;5.78;;;;;;;7.36;59.70;101130.00;4989723;28;20080;-59
2022/01/28 10:24:25;;;;;;;21.13;3.85;;;;;;;6.39;65.02;101127.50;4999556;28;20100;-59
2022/01/28 10:26:52;;;;;;;16.23;4.60;;;;;;;6.98;65.39;101129.84;4988881;28;20369;-59
2022/01/28 10:29:20;;;;;;;25.48;4.18;;;;;;;6.44;65.48;101130.50;4995825;28;20030;-59
2022/01/28 10:32:15;;;;;;;16.27;3.55;;;;;;;7.06;62.13;101123.63;4992263;28;20042;-59
2022/01/28 10:34:50;;;;;;;24.65;4.43;;;;;;;7.24;61.76;101115.38;4992836;28;20444;-59
2022/01/28 10:37:23;;;;;;;18.52;6.05;;;;;;;6.75;62.00;101107.59;4989654;28;20181;-59
2022/01/28 10:39:57;;;;;;;24.02;7.60;;;;;;;6.58;63.88;101106.81;4997613;28;20432;-59
2022/01/28 10:42:25;;;;;;;22.10;4.00;;;;;;;6.40;64.18;101109.69;4985939;28;20105;-58
2022/01/28 10:44:54;;;;;;;16.13;3.38;;;;;;;6.31;64.99;101111.50;4993454;28;20037;-59
2022/01/28 10:47:37;;;;;;;17.67;4.18;;;;;;;5.95;66.07;101116.38;4995123;28;20398;-59
2022/01/28 10:50:20;;;;;;;25.33;4.82;;;;;;;5.77;65.74;101120.00;4999933;28;20154;-59
2022/01/28 10:52:48;;;;;;;16.02;2.88;;;;;;;5.98;63.79;101116.84;4997975;28;20029;-59
2022/01/28 10:55:17;;;;;;;29.90;3.38;;;;;;;5.80;64.35;101110.84;4950834;28;20030;-59
2022/01/28 10:57:54;;;;;;;21.90;3.85;;;;;;;5.67;65.54;101124.63;4989405;28;20033;-59
2022/01/28 11:00:19;;;;;;;22.88;3.13;;;;;;;6.36;65.68;101125.16;4992032;28;20029;-59
2022/01/28 11:02:45;;;;;;;17.30;3.03;;;;;;;6.66;66.51;101125.44;4984920;28;20034;-59
2022/01/28 11:05:10;;;;;;;19.73;4.68;;;;;;;7.44;60.62;101119.28;4995024;28;20037;-59
2022/01/28 11:07:36;;;;;;;26.17;4.40;;;;;;;6.76;61.95;101117.25;4992502;28;20034;-59
2022/01/28 11:10:01;;;;;;;25.42;3.50;;;;;;;6.57;63.59;101126.47;4977351;28;20110;-60
2022/01/28 11:12:26;;;;;;;22.33;3.10;;;;;;;6.06;62.84;101129.34;4985488;28;20027;-59
2022/01/28 11:14:52;;;;;;;16.83;3.25;;;;;;;6.12;63.16;101128.69;4993966;28;20423;-59
2022/01/28 11:17:17;;;;;;;17.77;3.65;;;;;;;6.00;64.68;101116.69;4992988;28;20497;-59
2022/01/28 11:19:43;;;;;;;14.60;3.13;;;;;;;5.96;63.25;101120.69;4992495;28;20714;-59
2022/01/28 11:22:47;;;;;;;20.08;2.70;;;;;;;6.16;61.50;101118.53;4978018;28;20084;-59
2022/01/28 11:25:35;;;;;;;9.98;3.60;;;;;;;6.35;62.05;101107.53;4988929;28;20125;-59
2022/01/28 11:28:11;;;;;;;16.38;3.33;;;;;;;6.88;60.80;101113.22;5008479;28;20548;-59
2022/01/28 11:30:45;;;;;;;15.07;2.95;;;;;;;6.68;61.43;101110.94;4992899;28;20702;-59
2022/01/28 11:33:12;;;;;;;12.98;2.60;;;;;;;6.72;61.79;101121.28;4992162;28;20038;-60
2022/01/28 11:35:41;;;;;;;15.13;3.00;;;;;;;6.34;62.74;101121.00;4985862;28;20126;-60
2022/01/28 11:38:28;;;;;;;18.47;3.40;;;;;;;6.58;61.61;101112.97;4985063;28;20042;-59
2022/01/28 11:40:55;;;;;;;20.98;4.10;;;;;;;7.32;60.52;101112.69;4990044;28;20060;-59
2022/01/28 11:43:21;;;;;;;19.70;3.33;;;;;;;7.18;60.28;101119.59;4991953;28;20041;-59
2022/01/28 11:45:47;;;;;;;13.75;2.70;;;;;;;6.93;61.17;101123.38;4989687;28;20145;-59
2022/01/28 11:48:13;;;;;;;19.35;2.72;;;;;;;6.73;61.31;101125.59;4989640;28;20125;-60
2022/01/28 11:50:38;;;;;;;15.73;2.60;;;;;;;6.87;61.98;101122.22;4986543;28;20089;-61
2022/01/28 11:53:19;;;;;;;20.40;2.95;;;;;;;6.87;61.26;101124.88;4988143;28;20030;-61
2022/01/28 11:55:59;;;;;;;11.00;2.17;;;;;;;6.59;61.99;101121.78;4975741;28;20624;-59
2022/01/28 11:58:53;;;;;;;15.60;2.80;;;;;;;6.12;63.68;101126.03;4986268;28;20082;-60
2022/01/28 12:01:34;;;;;;;13.45;3.00;;;;;;;6.23;65.89;101136.31;4986224;28;20046;-59
2022/01/28 12:04:29;;;;;;;28.83;5.00;;;;;;;6.08;65.37;101138.00;4989602;28;20030;-59
2022/01/28 12:07:06;;;;;;;21.25;3.47;;;;;;;6.29;64.88;101128.66;4983598;28;20500;-60
2022/01/28 12:09:35;;;;;;;18.63;2.80;;;;;;;5.92;65.31;101125.50;4994233;28;20038;-59
2022/01/28 12:12:01;;;;;;;21.15;3.60;;;;;;;5.86;67.01;101135.94;4989482;28;20077;-59
2022/01/28 12:14:49;;;;;;;11.80;3.10;;;;;;;5.79;65.97;101123.31;4986075;28;20026;-59
2022/01/28 12:17:30;;;;;;;14.85;3.20;;;;;;;5.82;65.39;101122.97;4989281;28;20046;-59
2022/01/28 12:20:19;;;;;;;20.73;3.75;;;;;;;6.08;64.75;101122.03;4992910;28;20062;-59
2022/01/28 12:23:03;;;;;;;15.60;3.28;;;;;;;6.26;63.84;101120.03;4993730;28;20065;-59
2022/01/28 12:25:35;;;;;;;18.10;3.08;;;;;;;6.59;62.94;101117.31;4990573;28;20142;-59
2022/01/28 12:28:41;;;;;;;8.00;2.35;;;;;;;6.70;61.38;101110.78;4984629;28;20552;-59
2022/01/28 12:31:23;;;;;;;15.95;2.92;;;;;;;6.74;61.81;101111.25;4986470;28;20042;-59
2022/01/28 12:33:53;;;;;;;17.52;3.03;;;;;;;6.55;63.21;101118.63;4985686;28;20762;-59
2022/01/28 12:36:28;;;;;;;13.70;2.80;;;;;;;6.65;62.67;101113.94;4984834;28;20433;-59
2022/01/28 12:39:03;;;;;;;14.40;2.45;;;;;;;6.45;63.75;101110.00;4990292;28;20062;-59
2022/01/28 12:41:35;;;;;;;9.93;2.42;;;;;;;6.40;62.46;101107.03;4986992;28;20197;-59
2022/01/28 12:44:03;;;;;;;11.68;2.97;;;;;;;6.24;62.06;101100.72;4991883;28;20041;-59
2022/01/28 12:46:28;;;;;;;14.43;2.75;;;;;;;6.33;61.61;101095.38;4993975;28;20524;-59
2022/01/28 12:48:55;;;;;;;15.70;2.58;;;;;;;6.19;61.96;101095.06;4997593;28;20042;-59
2022/01/28 12:51:21;;;;;;;16.60;2.70;;;;;;;6.41;60.94;101098.00;4996567;28;20490;-59
2022/01/28 12:53:54;;;;;;;10.38;2.47;;;;;;;6.26;61.53;101103.19;4994548;28;20040;-59
2022/01/28 12:56:34;;;;;;;12.35;2.35;;;;;;;6.05;62.00;101095.75;4998252;28;20147;-59
2022/01/28 12:59:00;;;;;;;15.48;2.42;;;;;;;5.82;61.33;101091.06;4974754;28;20089;-59
2022/01/28 13:01:26;;;;;;;18.52;2.58;;;;;;;5.77;62.18;101088.06;4992635;28;20085;-59